sensor_id;sensor_type;location;lat;lon;timestamp;pressure;altitude;pressure_sealevel;temperature;humidity
37648;BME280;23490;53.656;10.076;2023-06-10T00:00:48;98238.97;;;-145.95;97.98
37648;BME280;23490;53.656;10.076;2023-06-10T00:03:14;98117.16;;;-145.95;95.66
37648;BME280;23490;53.656;10.076;2023-06-10T00:05:40;98162.59;;;-145.95;94.14
37648;BME280;23490;53.656;10.076;2023-06-10T00:08:05;98146.06;;;-145.95;93.13
37648;BME280;23490;53.656;10.076;2023-06-10T00:10:36;98181.16;;;-145.95;93.69
37648;BME280;23490;53.656;10.076;2023-06-10T00:13:03;98226.59;;;-145.95;93.68
37648;BME280;23490;53.656;10.076;2023-06-10T00:15:29;98203.88;;;-145.95;92.71
37648;BME280;23490;53.656;10.076;2023-06-10T00:17:54;98179.09;;;-145.95;91.61
37648;BME280;23490;53.656;10.076;2023-06-10T00:20:20;98243.09;;;-145.95;92.96
37648;BME280;23490;53.656;10.076;2023-06-10T00:22:47;98212.13;;;-145.95;92.35
37648;BME280;23490;53.656;10.076;2023-06-10T00:25:13;98210.06;;;-145.95;92.18
37648;BME280;23490;53.656;10.076;2023-06-10T00:27:39;98340.13;;;-145.95;93.24
37648;BME280;23490;53.656;10.076;2023-06-10T00:30:05;98298.84;;;-145.95;94.56
37648;BME280;23490;53.656;10.076;2023-06-10T00:32:35;98232.78;;;-145.95;91.80
37648;BME280;23490;53.656;10.076;2023-06-10T00:35:01;98257.56;;;-145.95;91.87
37648;BME280;23490;53.656;10.076;2023-06-10T00:37:26;98257.56;;;-145.95;92.54
37648;BME280;23490;53.656;10.076;2023-06-10T00:39:53;98278.19;;;-145.95;91.99
37648;BME280;23490;53.656;10.076;2023-06-10T00:42:19;98278.19;;;-145.95;92.05
37648;BME280;23490;53.656;10.076;2023-06-10T00:44:44;98269.94;;;-145.95;91.08
37648;BME280;23490;53.656;10.076;2023-06-10T00:47:10;98272.00;;;-145.95;91.52
37648;BME280;23490;53.656;10.076;2023-06-10T00:49:35;98288.53;;;-145.95;90.76
37648;BME280;23490;53.656;10.076;2023-06-10T00:52:03;98236.91;;;-145.95;89.67
37648;BME280;23490;53.656;10.076;2023-06-10T00:54:29;98286.47;;;-145.95;91.07
37648;BME280;23490;53.656;10.076;2023-06-10T00:56:56;98269.94;;;-145.95;90.19
37648;BME280;23490;53.656;10.076;2023-06-10T00:59:21;98294.72;;;-145.95;91.15
37648;BME280;23490;53.656;10.076;2023-06-10T01:01:47;98356.66;;;-145.95;92.50
37648;BME280;23490;53.656;10.076;2023-06-10T01:04:13;98307.09;;;-145.95;91.94
37648;BME280;23490;53.656;10.076;2023-06-10T01:07:00;98286.47;;;-145.95;91.27
37648;BME280;23490;53.656;10.076;2023-06-10T01:09:45;98331.88;;;-145.95;90.91
37648;BME280;23490;53.656;10.076;2023-06-10T01:14:54;98294.72;;;-145.95;91.77
37648;BME280;23490;53.656;10.076;2023-06-10T01:17:20;98294.72;;;-145.95;91.54
37648;BME280;23490;53.656;10.076;2023-06-10T01:19:53;98300.91;;;-145.95;90.49
37648;BME280;23490;53.656;10.076;2023-06-10T01:22:20;98305.03;;;-145.95;90.70
37648;BME280;23490;53.656;10.076;2023-06-10T01:24:47;98323.63;;;-145.95;91.03
37648;BME280;23490;53.656;10.076;2023-06-10T01:27:16;98340.13;;;-145.95;91.05
37648;BME280;23490;53.656;10.076;2023-06-10T01:29:46;98294.72;;;-145.95;89.48
37648;BME280;23490;53.656;10.076;2023-06-10T01:32:36;98272.00;;;-145.95;89.43
37648;BME280;23490;53.656;10.076;2023-06-10T01:35:04;98323.63;;;-145.95;89.46
37648;BME280;23490;53.656;10.076;2023-06-10T01:37:30;98288.53;;;-145.95;89.82
37648;BME280;23490;53.656;10.076;2023-06-10T01:39:57;98302.97;;;-145.95;89.68
37648;BME280;23490;53.656;10.076;2023-06-10T01:42:24;98377.28;;;-145.95;91.03
37648;BME280;23490;53.656;10.076;2023-06-10T01:44:50;98319.50;;;-145.95;90.17
37648;BME280;23490;53.656;10.076;2023-06-10T01:47:15;98352.53;;;-145.95;90.88
37648;BME280;23490;53.656;10.076;2023-06-10T01:49:41;98340.13;;;-145.95;90.99
37648;BME280;23490;53.656;10.076;2023-06-10T01:52:07;98371.09;;;-145.95;90.44
37648;BME280;23490;53.656;10.076;2023-06-10T01:54:32;98358.72;;;-145.95;89.85
37648;BME280;23490;53.656;10.076;2023-06-10T01:57:00;98331.88;;;-145.95;89.58
37648;BME280;23490;53.656;10.076;2023-06-10T01:59:25;98313.28;;;-145.95;91.13
37648;BME280;23490;53.656;10.076;2023-06-10T02:01:51;98313.28;;;-145.95;91.74
37648;BME280;23490;53.656;10.076;2023-06-10T02:04:16;98331.88;;;-145.95;91.95
37648;BME280;23490;53.656;10.076;2023-06-10T02:06:41;98344.25;;;-145.95;91.71
37648;BME280;23490;53.656;10.076;2023-06-10T02:09:07;98319.50;;;-145.95;91.57
37648;BME280;23490;53.656;10.076;2023-06-10T02:11:33;98364.91;;;-145.95;92.32
37648;BME280;23490;53.656;10.076;2023-06-10T02:13:58;98333.94;;;-145.95;91.57
37648;BME280;23490;53.656;10.076;2023-06-10T02:16:24;98329.81;;;-145.95;91.02
37648;BME280;23490;53.656;10.076;2023-06-10T02:18:49;98352.53;;;-145.95;91.08
37648;BME280;23490;53.656;10.076;2023-06-10T02:21:15;98348.38;;;-145.95;90.24
37648;BME280;23490;53.656;10.076;2023-06-10T02:23:40;98340.13;;;-145.95;90.76
37648;BME280;23490;53.656;10.076;2023-06-10T02:26:05;98364.91;;;-145.95;91.12
37648;BME280;23490;53.656;10.076;2023-06-10T02:28:31;98360.78;;;-145.95;91.63
37648;BME280;23490;53.656;10.076;2023-06-10T02:30:56;98387.63;;;-145.95;90.61
37648;BME280;23490;53.656;10.076;2023-06-10T02:33:22;98406.19;;;-145.95;92.25
37648;BME280;23490;53.656;10.076;2023-06-10T02:35:48;98344.25;;;-145.95;90.89
37648;BME280;23490;53.656;10.076;2023-06-10T02:38:13;98428.91;;;-145.95;93.32
37648;BME280;23490;53.656;10.076;2023-06-10T02:40:39;98387.63;;;-145.95;93.80
37648;BME280;23490;53.656;10.076;2023-06-10T02:43:04;98422.72;;;-145.95;94.43
37648;BME280;23490;53.656;10.076;2023-06-10T02:45:29;98410.34;;;-145.95;93.16
37648;BME280;23490;53.656;10.076;2023-06-10T02:47:55;98366.97;;;-145.95;93.23
37648;BME280;23490;53.656;10.076;2023-06-10T02:50:20;98385.56;;;-145.95;92.43
37648;BME280;23490;53.656;10.076;2023-06-10T02:52:45;98364.91;;;-145.95;91.63
37648;BME280;23490;53.656;10.076;2023-06-10T02:55:11;98393.81;;;-145.95;92.59
37648;BME280;23490;53.656;10.076;2023-06-10T02:57:36;98381.44;;;-145.95;93.48
37648;BME280;23490;53.656;10.076;2023-06-10T03:00:02;98402.06;;;-145.95;92.63
37648;BME280;23490;53.656;10.076;2023-06-10T03:02:32;98381.44;;;-145.95;92.06
37648;BME280;23490;53.656;10.076;2023-06-10T03:04:57;98410.34;;;-145.95;92.02
37648;BME280;23490;53.656;10.076;2023-06-10T03:07:23;98416.53;;;-145.95;92.83
37648;BME280;23490;53.656;10.076;2023-06-10T03:09:49;98379.38;;;-145.95;92.99
37648;BME280;23490;53.656;10.076;2023-06-10T03:12:14;98393.81;;;-145.95;92.40
37648;BME280;23490;53.656;10.076;2023-06-10T03:14:41;98387.63;;;-145.95;92.65
37648;BME280;23490;53.656;10.076;2023-06-10T03:17:06;98408.28;;;-145.95;92.42
37648;BME280;23490;53.656;10.076;2023-06-10T03:19:33;98393.81;;;-145.95;92.67
37648;BME280;23490;53.656;10.076;2023-06-10T03:22:10;98422.72;;;-145.95;92.30
37648;BME280;23490;53.656;10.076;2023-06-10T03:24:36;98418.59;;;-145.95;93.45
37648;BME280;23490;53.656;10.076;2023-06-10T03:27:08;98416.53;;;-145.95;93.00
37648;BME280;23490;53.656;10.076;2023-06-10T03:29:33;98375.22;;;-145.95;91.97
37648;BME280;23490;53.656;10.076;2023-06-10T03:31:58;98336.00;;;-145.95;92.60
37648;BME280;23490;53.656;10.076;2023-06-10T03:34:24;98435.09;;;-145.95;93.27
37648;BME280;23490;53.656;10.076;2023-06-10T03:36:49;98478.47;;;-145.95;93.80
37648;BME280;23490;53.656;10.076;2023-06-10T03:39:15;98414.47;;;-145.95;93.66
37648;BME280;23490;53.656;10.076;2023-06-10T03:41:40;98447.50;;;-145.95;95.35
37648;BME280;23490;53.656;10.076;2023-06-10T03:44:05;98418.59;;;-145.95;93.80
37648;BME280;23490;53.656;10.076;2023-06-10T03:46:31;98451.63;;;-145.95;93.78
37648;BME280;23490;53.656;10.076;2023-06-10T03:48:56;98400.00;;;-145.95;94.38
37648;BME280;23490;53.656;10.076;2023-06-10T03:51:21;98360.78;;;-145.95;93.35
37648;BME280;23490;53.656;10.076;2023-06-10T03:53:48;98389.69;;;-145.95;93.05
37648;BME280;23490;53.656;10.076;2023-06-10T03:56:13;98393.81;;;-145.95;94.01
37648;BME280;23490;53.656;10.076;2023-06-10T03:58:38;98393.81;;;-145.95;94.08
37648;BME280;23490;53.656;10.076;2023-06-10T04:01:03;98418.59;;;-145.95;95.27
37648;BME280;23490;53.656;10.076;2023-06-10T04:03:29;98414.47;;;-145.95;94.09
37648;BME280;23490;53.656;10.076;2023-06-10T04:05:54;98422.72;;;-145.95;94.53
37648;BME280;23490;53.656;10.076;2023-06-10T04:08:20;98397.94;;;-145.95;94.52
37648;BME280;23490;53.656;10.076;2023-06-10T04:10:45;98418.59;;;-145.95;95.06
37648;BME280;23490;53.656;10.076;2023-06-10T04:13:11;98397.94;;;-145.95;95.04
37648;BME280;23490;53.656;10.076;2023-06-10T04:15:36;98404.13;;;-145.95;95.31
37648;BME280;23490;53.656;10.076;2023-06-10T04:18:02;98406.19;;;-145.95;94.48
37648;BME280;23490;53.656;10.076;2023-06-10T04:20:27;98393.81;;;-145.95;94.99
37648;BME280;23490;53.656;10.076;2023-06-10T04:22:52;98389.69;;;-145.95;95.18
37648;BME280;23490;53.656;10.076;2023-06-10T04:25:18;98375.22;;;-145.95;96.26
37648;BME280;23490;53.656;10.076;2023-06-10T04:27:44;98402.06;;;-145.95;96.83
37648;BME280;23490;53.656;10.076;2023-06-10T04:30:10;98327.75;;;-145.95;95.21
37648;BME280;23490;53.656;10.076;2023-06-10T04:32:35;98358.72;;;-145.95;94.46
37648;BME280;23490;53.656;10.076;2023-06-10T04:35:00;98381.44;;;-145.95;97.11
37648;BME280;23490;53.656;10.076;2023-06-10T04:37:26;98360.78;;;-145.95;96.79
37648;BME280;23490;53.656;10.076;2023-06-10T04:39:51;98369.03;;;-145.95;97.00
37648;BME280;23490;53.656;10.076;2023-06-10T04:42:16;98371.09;;;-145.95;98.07
37648;BME280;23490;53.656;10.076;2023-06-10T04:44:42;98381.44;;;-145.95;97.74
37648;BME280;23490;53.656;10.076;2023-06-10T04:47:08;98364.91;;;-145.95;97.54
37648;BME280;23490;53.656;10.076;2023-06-10T04:49:34;98311.22;;;-145.95;96.33
37648;BME280;23490;53.656;10.076;2023-06-10T04:52:00;98356.66;;;-145.95;97.41
37648;BME280;23490;53.656;10.076;2023-06-10T04:54:25;98327.75;;;-145.95;97.17
37648;BME280;23490;53.656;10.076;2023-06-10T04:56:51;98340.13;;;-145.95;97.90
37648;BME280;23490;53.656;10.076;2023-06-10T04:59:16;98302.97;;;-145.95;97.77
37648;BME280;23490;53.656;10.076;2023-06-10T05:01:41;98282.31;;;-145.95;98.40
37648;BME280;23490;53.656;10.076;2023-06-10T05:04:06;98298.84;;;-145.95;98.44
37648;BME280;23490;53.656;10.076;2023-06-10T05:06:32;98269.94;;;-145.95;97.57
37648;BME280;23490;53.656;10.076;2023-06-10T05:08:57;98315.38;;;-145.95;98.68
37648;BME280;23490;53.656;10.076;2023-06-10T05:11:22;98286.47;;;-145.95;98.70
37648;BME280;23490;53.656;10.076;2023-06-10T05:13:48;98272.00;;;-145.95;97.55
37648;BME280;23490;53.656;10.076;2023-06-10T05:16:14;98325.69;;;-145.95;97.53
37648;BME280;23490;53.656;10.076;2023-06-10T05:18:40;98321.56;;;-145.95;98.42
37648;BME280;23490;53.656;10.076;2023-06-10T05:21:05;98274.06;;;-145.95;98.05
37648;BME280;23490;53.656;10.076;2023-06-10T05:23:31;98245.16;;;-145.95;96.73
37648;BME280;23490;53.656;10.076;2023-06-10T05:25:56;98208.00;;;-145.95;96.06
37648;BME280;23490;53.656;10.076;2023-06-10T05:28:22;98241.03;;;-145.95;95.42
37648;BME280;23490;53.656;10.076;2023-06-10T05:30:47;98191.50;;;-145.95;94.98
37648;BME280;23490;53.656;10.076;2023-06-10T05:33:12;98253.44;;;-145.95;94.06
37648;BME280;23490;53.656;10.076;2023-06-10T05:35:38;98154.31;;;-145.95;93.15
37648;BME280;23490;53.656;10.076;2023-06-10T05:38:03;98170.84;;;-145.95;91.84
37648;BME280;23490;53.656;10.076;2023-06-10T05:40:28;98121.28;;;-145.95;90.43
37648;BME280;23490;53.656;10.076;2023-06-10T05:42:54;98092.41;;;-145.95;88.06
37648;BME280;23490;53.656;10.076;2023-06-10T05:45:19;98084.13;;;-145.95;87.76
37648;BME280;23490;53.656;10.076;2023-06-10T05:47:44;98090.34;;;-145.95;87.68
37648;BME280;23490;53.656;10.076;2023-06-10T05:50:10;98059.38;;;-145.95;88.22
37648;BME280;23490;53.656;10.076;2023-06-10T05:52:36;98059.38;;;-145.95;85.72
37648;BME280;23490;53.656;10.076;2023-06-10T05:55:04;98030.47;;;-145.95;84.15
37648;BME280;23490;53.656;10.076;2023-06-10T05:57:30;97999.50;;;-145.95;85.27
37648;BME280;23490;53.656;10.076;2023-06-10T05:59:55;98024.28;;;-145.95;83.98
37648;BME280;23490;53.656;10.076;2023-06-10T06:02:20;98009.81;;;-145.95;83.88
37648;BME280;23490;53.656;10.076;2023-06-10T06:04:46;98013.94;;;-145.95;82.76
37648;BME280;23490;53.656;10.076;2023-06-10T06:07:11;98036.66;;;-145.95;82.74
37648;BME280;23490;53.656;10.076;2023-06-10T06:09:37;98022.22;;;-145.95;82.17
37648;BME280;23490;53.656;10.076;2023-06-10T06:12:02;97993.31;;;-145.95;83.18
37648;BME280;23490;53.656;10.076;2023-06-10T06:14:30;97980.91;;;-145.95;80.53
37648;BME280;23490;53.656;10.076;2023-06-10T06:16:56;97970.59;;;-145.95;80.99
37648;BME280;23490;53.656;10.076;2023-06-10T06:19:21;98026.34;;;-145.95;80.56
37648;BME280;23490;53.656;10.076;2023-06-10T06:21:46;97902.47;;;-145.95;79.10
37648;BME280;23490;53.656;10.076;2023-06-10T06:24:12;97925.19;;;-145.95;79.00
37648;BME280;23490;53.656;10.076;2023-06-10T06:26:37;97892.16;;;-145.95;78.07
37648;BME280;23490;53.656;10.076;2023-06-10T06:29:02;97906.59;;;-145.95;76.46
37648;BME280;23490;53.656;10.076;2023-06-10T06:31:28;97892.16;;;-145.95;76.36
37648;BME280;23490;53.656;10.076;2023-06-10T06:33:53;97844.66;;;-145.95;75.62
37648;BME280;23490;53.656;10.076;2023-06-10T06:36:18;97881.84;;;-145.95;75.54
37648;BME280;23490;53.656;10.076;2023-06-10T06:38:44;97859.13;;;-145.95;77.77
37648;BME280;23490;53.656;10.076;2023-06-10T06:41:09;97873.56;;;-145.95;77.46
37648;BME280;23490;53.656;10.076;2023-06-10T06:43:35;97774.50;;;-145.95;75.43
37648;BME280;23490;53.656;10.076;2023-06-10T06:46:00;97757.97;;;-145.95;74.30
37648;BME280;23490;53.656;10.076;2023-06-10T06:48:26;97784.81;;;-145.95;72.57
37648;BME280;23490;53.656;10.076;2023-06-10T06:50:51;97780.69;;;-145.95;73.45
37648;BME280;23490;53.656;10.076;2023-06-10T06:53:16;97731.13;;;-145.95;72.73
37648;BME280;23490;53.656;10.076;2023-06-10T06:55:41;97757.97;;;-145.95;74.75
37648;BME280;23490;53.656;10.076;2023-06-10T06:58:07;97803.38;;;-145.95;71.86
37648;BME280;23490;53.656;10.076;2023-06-10T07:00:32;97745.59;;;-145.95;72.37
37648;BME280;23490;53.656;10.076;2023-06-10T07:02:58;97673.34;;;-145.95;72.60
37648;BME280;23490;53.656;10.076;2023-06-10T07:05:24;97706.38;;;-145.95;72.12
37648;BME280;23490;53.656;10.076;2023-06-10T07:07:53;97691.91;;;-145.95;72.80
37648;BME280;23490;53.656;10.076;2023-06-10T07:10:24;97663.03;;;-145.95;70.61
37648;BME280;23490;53.656;10.076;2023-06-10T07:12:50;97673.34;;;-145.95;69.37
37648;BME280;23490;53.656;10.076;2023-06-10T07:15:15;97665.09;;;-145.95;70.58
37648;BME280;23490;53.656;10.076;2023-06-10T07:17:41;97601.09;;;-145.95;70.34
37648;BME280;23490;53.656;10.076;2023-06-10T07:20:07;97621.75;;;-145.95;68.89
37648;BME280;23490;53.656;10.076;2023-06-10T07:22:32;97644.44;;;-145.95;70.03
37648;BME280;23490;53.656;10.076;2023-06-10T07:24:57;97592.84;;;-145.95;69.46
37648;BME280;23490;53.656;10.076;2023-06-10T07:27:23;97609.34;;;-145.95;72.09
37648;BME280;23490;53.656;10.076;2023-06-10T07:29:48;97650.63;;;-145.95;69.71
37648;BME280;23490;53.656;10.076;2023-06-10T07:32:14;97547.44;;;-145.95;67.78
37648;BME280;23490;53.656;10.076;2023-06-10T07:34:39;97539.19;;;-145.95;68.42
37648;BME280;23490;53.656;10.076;2023-06-10T07:37:05;97514.41;;;-145.95;67.63
37648;BME280;23490;53.656;10.076;2023-06-10T07:39:30;97522.66;;;-145.95;66.78
37648;BME280;23490;53.656;10.076;2023-06-10T07:41:55;97475.19;;;-145.95;66.85
37648;BME280;23490;53.656;10.076;2023-06-10T07:44:22;97456.63;;;-145.95;68.76
37648;BME280;23490;53.656;10.076;2023-06-10T07:46:48;97477.25;;;-145.95;64.87
37648;BME280;23490;53.656;10.076;2023-06-10T07:49:13;97460.75;;;-145.95;64.86
37648;BME280;23490;53.656;10.076;2023-06-10T07:51:39;97433.91;;;-145.95;64.42
37648;BME280;23490;53.656;10.076;2023-06-10T07:54:05;97489.63;;;-145.95;64.28
37648;BME280;23490;53.656;10.076;2023-06-10T07:56:31;97378.19;;;-145.95;63.18
37648;BME280;23490;53.656;10.076;2023-06-10T07:58:56;97338.97;;;-145.95;64.45
37648;BME280;23490;53.656;10.076;2023-06-10T08:01:22;97320.38;;;-145.95;63.26
37648;BME280;23490;53.656;10.076;2023-06-10T08:03:48;97312.13;;;-145.95;61.75
37648;BME280;23490;53.656;10.076;2023-06-10T08:06:13;97246.09;;;-145.95;62.34
37648;BME280;23490;53.656;10.076;2023-06-10T08:08:39;97262.59;;;-145.95;63.76
37648;BME280;23490;53.656;10.076;2023-06-10T08:11:08;97262.59;;;-145.95;61.36
37648;BME280;23490;53.656;10.076;2023-06-10T08:13:33;97157.34;;;-145.95;63.48
37648;BME280;23490;53.656;10.076;2023-06-10T08:15:58;97118.13;;;-145.95;60.20
37648;BME280;23490;53.656;10.076;2023-06-10T08:18:24;97124.31;;;-145.95;60.32
37648;BME280;23490;53.656;10.076;2023-06-10T08:20:49;97188.28;;;-145.95;58.74
37648;BME280;23490;53.656;10.076;2023-06-10T08:23:15;97076.84;;;-145.95;58.65
37648;BME280;23490;53.656;10.076;2023-06-10T08:25:40;97023.19;;;-145.95;59.25
37648;BME280;23490;53.656;10.076;2023-06-10T08:28:05;96988.09;;;-145.95;56.51
37648;BME280;23490;53.656;10.076;2023-06-10T08:30:31;97019.06;;;-145.95;57.94
37648;BME280;23490;53.656;10.076;2023-06-10T08:32:56;97023.19;;;-145.95;58.17
37648;BME280;23490;53.656;10.076;2023-06-10T08:35:21;96845.72;;;-145.95;55.00
37648;BME280;23490;53.656;10.076;2023-06-10T08:37:47;96769.34;;;-145.95;54.90
37648;BME280;23490;53.656;10.076;2023-06-10T08:40:12;96719.81;;;-145.95;55.93
37648;BME280;23490;53.656;10.076;2023-06-10T08:42:45;96703.31;;;-145.95;53.12
37648;BME280;23490;53.656;10.076;2023-06-10T08:45:16;96808.56;;;-145.95;53.96
37648;BME280;23490;53.656;10.076;2023-06-10T08:47:45;96709.50;;;-145.95;55.23
37648;BME280;23490;53.656;10.076;2023-06-10T08:50:12;96697.13;;;-145.95;52.81
37648;BME280;23490;53.656;10.076;2023-06-10T08:52:42;96583.63;;;-145.95;52.52
37648;BME280;23490;53.656;10.076;2023-06-10T08:55:14;96596.00;;;-145.95;52.30
37648;BME280;23490;53.656;10.076;2023-06-10T08:57:41;96391.72;;;-145.95;50.83
37648;BME280;23490;53.656;10.076;2023-06-10T09:00:07;96470.13;;;-145.95;51.67
37648;BME280;23490;53.656;10.076;2023-06-10T09:02:33;96569.19;;;-145.95;50.88
37648;BME280;23490;53.656;10.076;2023-06-10T09:05:00;96453.63;;;-145.95;51.88
37648;BME280;23490;53.656;10.076;2023-06-10T09:07:27;96598.06;;;-145.95;51.80
37648;BME280;23490;53.656;10.076;2023-06-10T09:09:53;96548.56;;;-145.95;52.19
37648;BME280;23490;53.656;10.076;2023-06-10T09:12:19;96472.19;;;-145.95;52.24
37648;BME280;23490;53.656;10.076;2023-06-10T09:14:45;96515.53;;;-145.95;52.07
37648;BME280;23490;53.656;10.076;2023-06-10T09:17:10;96453.63;;;-145.95;50.51
37648;BME280;23490;53.656;10.076;2023-06-10T09:19:38;96375.22;;;-145.95;51.29
37648;BME280;23490;53.656;10.076;2023-06-10T09:22:03;96189.53;;;-145.95;48.89
37648;BME280;23490;53.656;10.076;2023-06-10T09:24:29;96247.28;;;-145.95;48.48
37648;BME280;23490;53.656;10.076;2023-06-10T09:27:15;96247.28;;;-145.95;49.48
37648;BME280;23490;53.656;10.076;2023-06-10T09:29:55;96210.16;;;-145.95;47.97
37648;BME280;23490;53.656;10.076;2023-06-10T09:32:23;96288.56;;;-145.95;49.78
37648;BME280;23490;53.656;10.076;2023-06-10T09:34:49;96255.53;;;-145.95;48.78
37648;BME280;23490;53.656;10.076;2023-06-10T09:37:25;96148.25;;;-145.95;48.63
37648;BME280;23490;53.656;10.076;2023-06-10T09:40:02;96189.53;;;-145.95;47.95
37648;BME280;23490;53.656;10.076;2023-06-10T09:42:32;96061.59;;;-145.95;48.17
37648;BME280;23490;53.656;10.076;2023-06-10T09:44:57;96098.72;;;-145.95;48.68
37648;BME280;23490;53.656;10.076;2023-06-10T09:47:22;96201.91;;;-145.95;49.13
37648;BME280;23490;53.656;10.076;2023-06-10T09:49:51;96082.22;;;-145.95;47.71
37648;BME280;23490;53.656;10.076;2023-06-10T09:52:22;96003.81;;;-145.95;48.57
37648;BME280;23490;53.656;10.076;2023-06-10T09:54:49;96065.72;;;-145.95;48.93
37648;BME280;23490;53.656;10.076;2023-06-10T09:57:16;95987.31;;;-145.95;48.08
37648;BME280;23490;53.656;10.076;2023-06-10T09:59:42;95888.28;;;-145.95;49.05
37648;BME280;23490;53.656;10.076;2023-06-10T10:02:14;95859.41;;;-145.95;48.04
37648;BME280;23490;53.656;10.076;2023-06-10T10:04:39;95917.19;;;-145.95;47.86
37648;BME280;23490;53.656;10.076;2023-06-10T10:07:04;95834.66;;;-145.95;46.18
37648;BME280;23490;53.656;10.076;2023-06-10T10:09:32;96032.72;;;-145.95;47.66
37648;BME280;23490;53.656;10.076;2023-06-10T10:11:57;95931.63;;;-145.95;48.23
37648;BME280;23490;53.656;10.076;2023-06-10T10:14:28;95807.84;;;-145.95;48.04
37648;BME280;23490;53.656;10.076;2023-06-10T10:16:55;95776.88;;;-145.95;47.38
37648;BME280;23490;53.656;10.076;2023-06-10T10:19:23;95735.63;;;-145.95;48.78
37648;BME280;23490;53.656;10.076;2023-06-10T10:21:55;95898.59;;;-145.95;47.76
37648;BME280;23490;53.656;10.076;2023-06-10T10:24:27;95908.91;;;-145.95;46.61
37648;BME280;23490;53.656;10.076;2023-06-10T10:26:58;95925.44;;;-145.95;49.68
37648;BME280;23490;53.656;10.076;2023-06-10T10:29:33;95871.78;;;-145.95;48.23
37648;BME280;23490;53.656;10.076;2023-06-10T10:32:01;96107.00;;;-145.95;47.94
37648;BME280;23490;53.656;10.076;2023-06-10T10:34:57;95925.44;;;-145.95;49.73
37648;BME280;23490;53.656;10.076;2023-06-10T10:37:26;95970.81;;;-145.95;49.83
37648;BME280;23490;53.656;10.076;2023-06-10T10:39:52;96022.41;;;-145.95;49.79
37648;BME280;23490;53.656;10.076;2023-06-10T10:42:18;95972.88;;;-145.95;48.55
37648;BME280;23490;53.656;10.076;2023-06-10T10:44:44;95935.75;;;-145.95;50.41
37648;BME280;23490;53.656;10.076;2023-06-10T10:47:10;95715.00;;;-145.95;47.59
37648;BME280;23490;53.656;10.076;2023-06-10T10:49:37;95624.22;;;-145.95;46.18
37648;BME280;23490;53.656;10.076;2023-06-10T10:52:03;95663.41;;;-145.95;44.94
37648;BME280;23490;53.656;10.076;2023-06-10T10:54:35;95776.88;;;-145.95;45.29
37648;BME280;23490;53.656;10.076;2023-06-10T10:59:46;95669.59;;;-145.95;46.09
37648;BME280;23490;53.656;10.076;2023-06-10T11:02:17;95364.31;;;-145.95;44.40
37648;BME280;23490;53.656;10.076;2023-06-10T11:04:48;95587.09;;;-145.95;46.88
37648;BME280;23490;53.656;10.076;2023-06-10T11:07:14;95547.91;;;-145.95;46.80
37648;BME280;23490;53.656;10.076;2023-06-10T11:09:59;95611.84;;;-145.95;46.40
37648;BME280;23490;53.656;10.076;2023-06-10T11:12:25;95871.78;;;-145.95;47.59
37648;BME280;23490;53.656;10.076;2023-06-10T11:14:54;95690.25;;;-145.95;46.35
37648;BME280;23490;53.656;10.076;2023-06-10T11:17:21;95558.22;;;-145.95;44.18
37648;BME280;23490;53.656;10.076;2023-06-10T11:19:46;95529.34;;;-145.95;44.96
37648;BME280;23490;53.656;10.076;2023-06-10T11:22:16;95413.81;;;-145.95;46.19
37648;BME280;23490;53.656;10.076;2023-06-10T11:24:50;95459.19;;;-145.95;44.93
37648;BME280;23490;53.656;10.076;2023-06-10T11:27:23;95607.72;;;-145.95;44.96
37648;BME280;23490;53.656;10.076;2023-06-10T11:30:18;95397.31;;;-145.95;44.57
37648;BME280;23490;53.656;10.076;2023-06-10T11:32:44;95327.16;;;-145.95;44.69
37648;BME280;23490;53.656;10.076;2023-06-10T11:35:10;95434.44;;;-145.95;44.04
37648;BME280;23490;53.656;10.076;2023-06-10T11:37:35;95735.63;;;-145.95;46.54
37648;BME280;23490;53.656;10.076;2023-06-10T11:40:02;95615.97;;;-145.95;45.73
37648;BME280;23490;53.656;10.076;2023-06-10T11:42:27;95648.97;;;-145.95;45.34
37648;BME280;23490;53.656;10.076;2023-06-10T11:44:54;95376.69;;;-145.95;44.51
37648;BME280;23490;53.656;10.076;2023-06-10T11:47:20;95252.91;;;-145.95;43.08
37648;BME280;23490;53.656;10.076;2023-06-10T11:49:55;95257.03;;;-145.95;43.37
37648;BME280;23490;53.656;10.076;2023-06-10T11:52:31;95323.03;;;-145.95;42.48
37648;BME280;23490;53.656;10.076;2023-06-10T11:55:05;95290.03;;;-145.95;42.63
37648;BME280;23490;53.656;10.076;2023-06-10T11:57:34;95244.66;;;-145.95;42.26
37648;BME280;23490;53.656;10.076;2023-06-10T12:00:04;95294.16;;;-145.95;44.26
37648;BME280;23490;53.656;10.076;2023-06-10T12:02:31;95108.53;;;-145.95;41.54
37648;BME280;23490;53.656;10.076;2023-06-10T12:05:09;95374.63;;;-145.95;42.93
37648;BME280;23490;53.656;10.076;2023-06-10T12:07:35;95151.84;;;-145.95;43.51
37648;BME280;23490;53.656;10.076;2023-06-10T12:10:00;95170.41;;;-145.95;43.53
37648;BME280;23490;53.656;10.076;2023-06-10T12:12:25;95240.53;;;-145.95;43.37
37648;BME280;23490;53.656;10.076;2023-06-10T12:14:57;95162.16;;;-145.95;43.67
37648;BME280;23490;53.656;10.076;2023-06-10T12:20:04;95325.09;;;-145.95;42.83
37648;BME280;23490;53.656;10.076;2023-06-10T12:22:37;95347.81;;;-145.95;43.36
37648;BME280;23490;53.656;10.076;2023-06-10T12:25:04;95232.28;;;-145.95;43.33
37648;BME280;23490;53.656;10.076;2023-06-10T12:27:32;95250.84;;;-145.95;41.81
37648;BME280;23490;53.656;10.076;2023-06-10T12:30:00;95050.78;;;-145.95;41.22
37648;BME280;23490;53.656;10.076;2023-06-10T12:32:41;95054.91;;;-145.95;41.34
37648;BME280;23490;53.656;10.076;2023-06-10T12:35:07;95269.41;;;-145.95;41.36
37648;BME280;23490;53.656;10.076;2023-06-10T12:37:33;95087.91;;;-145.95;43.67